createdAt,value
2019-01-11T00:00:52.359Z,0.00
2019-01-11T00:01:52.426Z,0.00
2019-01-11T00:02:52.346Z,0.00
2019-01-11T00:03:52.319Z,0.00
2019-01-11T00:04:52.508Z,0.00
2019-01-11T00:05:52.327Z,0.00
2019-01-11T00:06:52.315Z,0.00
2019-01-11T00:07:52.296Z,0.00
2019-01-11T00:08:52.264Z,0.00
2019-01-11T00:09:52.542Z,0.00
2019-01-11T00:10:52.283Z,0.00
2019-01-11T00:11:52.247Z,0.00
2019-01-11T00:12:52.224Z,0.00
2019-01-11T00:13:52.227Z,0.00
2019-01-11T00:14:52.202Z,0.00
2019-01-11T00:15:52.444Z,0.00
2019-01-11T00:16:52.230Z,0.00
2019-01-11T00:17:52.337Z,0.00
2019-01-11T00:18:52.231Z,0.00
2019-01-11T00:19:52.156Z,0.00
2019-01-11T00:20:52.156Z,0.00
2019-01-11T00:21:52.267Z,0.00
2019-01-11T00:22:53.354Z,0.00
2019-01-11T00:23:52.304Z,0.00
2019-01-11T00:24:52.098Z,0.00
2019-01-11T00:25:53.731Z,0.00
2019-01-11T00:26:52.074Z,0.00
2019-01-11T00:27:52.086Z,0.00
2019-01-11T00:28:52.073Z,0.00
2019-01-11T00:29:56.083Z,0.00
2019-01-11T00:30:52.037Z,0.00
2019-01-11T00:31:52.025Z,0.00
2019-01-11T00:32:52.006Z,0.00
2019-01-11T00:33:53.782Z,0.00
2019-01-11T00:34:52.250Z,0.00
2019-01-11T00:35:52.803Z,0.00
2019-01-11T00:36:52.174Z,0.00
2019-01-11T00:37:52.198Z,0.00
2019-01-11T00:38:51.993Z,0.00
2019-01-11T00:39:51.958Z,0.00
2019-01-11T00:40:52.172Z,0.00
2019-01-11T00:41:52.977Z,0.00
2019-01-11T00:42:52.160Z,0.00
2019-01-11T00:43:51.919Z,0.00
2019-01-11T00:44:51.893Z,0.00
2019-01-11T00:45:52.934Z,0.00
2019-01-11T00:46:51.880Z,0.00
2019-01-11T00:47:52.995Z,0.00
2019-01-11T00:48:52.139Z,0.00
2019-01-11T00:49:52.226Z,0.00
2019-01-11T00:50:51.884Z,0.00
2019-01-11T00:51:51.811Z,0.00
2019-01-11T00:52:51.952Z,0.00
2019-01-11T00:53:51.780Z,0.00
2019-01-11T00:54:51.831Z,0.00
2019-01-11T00:55:51.942Z,0.00
2019-01-11T00:56:51.757Z,0.00
2019-01-11T00:57:51.738Z,0.00
2019-01-11T00:58:51.729Z,0.00
2019-01-11T00:59:51.723Z,0.00
2019-01-11T01:00:51.726Z,0.00
2019-01-11T01:01:51.902Z,0.00
2019-01-11T01:02:51.707Z,0.00
2019-01-11T01:03:51.757Z,0.00
2019-01-11T01:04:51.662Z,0.00
2019-01-11T01:05:52.027Z,0.00
2019-01-11T01:06:51.677Z,0.00
2019-01-11T01:07:51.833Z,0.00
2019-01-11T01:08:53.677Z,0.00
2019-01-11T01:09:51.877Z,0.00
2019-01-11T01:10:51.630Z,0.00
2019-01-11T01:11:51.967Z,0.00
2019-01-11T01:12:51.910Z,0.00
2019-01-11T01:13:51.730Z,0.00
2019-01-11T01:14:51.644Z,0.00
2019-01-11T01:15:52.705Z,0.00
2019-01-11T01:16:51.650Z,0.00
2019-01-11T01:17:52.364Z,0.00
2019-01-11T01:18:52.054Z,0.00
2019-01-11T01:19:52.261Z,0.00
2019-01-11T01:20:51.650Z,0.00
2019-01-11T01:21:53.030Z,0.00
2019-01-11T01:22:51.662Z,0.00
2019-01-11T01:23:52.007Z,0.00
2019-01-11T01:24:51.743Z,0.00
2019-01-11T01:25:51.467Z,0.00
2019-01-11T01:26:51.586Z,0.00
2019-01-11T01:27:51.420Z,0.00
2019-01-11T01:28:51.451Z,0.00
2019-01-11T01:29:53.692Z,0.00
2019-01-11T01:30:51.388Z,0.00
2019-01-11T01:31:51.380Z,0.00
2019-01-11T01:32:51.365Z,0.00
2019-01-11T01:33:51.931Z,0.00
2019-01-11T01:34:51.344Z,0.00
2019-01-11T01:35:51.340Z,0.00
2019-01-11T01:36:51.331Z,0.00
2019-01-11T01:37:51.379Z,0.00
2019-01-11T01:38:51.291Z,0.00
2019-01-11T01:39:51.924Z,0.00
2019-01-11T01:40:51.273Z,0.00
2019-01-11T01:41:52.162Z,0.00
2019-01-11T01:42:51.258Z,0.00
2019-01-11T01:43:51.259Z,0.00
2019-01-11T01:44:51.224Z,0.00
2019-01-11T01:45:52.227Z,0.00
2019-01-11T01:46:53.304Z,0.00
2019-01-11T01:47:51.211Z,0.00
2019-01-11T01:48:51.210Z,0.00
2019-01-11T01:49:51.219Z,0.00
2019-01-11T01:51:06.517Z,0.00
2019-01-11T01:51:51.158Z,0.00
2019-01-11T01:52:51.158Z,0.00
2019-01-11T01:53:51.129Z,0.00
2019-01-11T01:54:51.182Z,0.00
2019-01-11T01:55:51.105Z,0.00
2019-01-11T01:56:51.414Z,0.00
2019-01-11T01:57:51.321Z,0.00
2019-01-11T01:58:52.568Z,0.00
2019-01-11T01:59:51.119Z,0.00
2019-01-11T02:00:51.094Z,0.00
2019-01-11T02:01:51.043Z,0.00
2019-01-11T02:02:51.855Z,0.00
2019-01-11T02:03:51.018Z,0.00
2019-01-11T02:04:51.023Z,0.00
2019-01-11T02:05:51.380Z,0.00
2019-01-11T02:06:50.993Z,0.00
2019-01-11T02:07:50.987Z,0.00
2019-01-11T02:08:50.970Z,0.00
2019-01-11T02:09:50.979Z,0.00
2019-01-11T02:10:50.967Z,0.00
2019-01-11T02:11:51.189Z,0.00
2019-01-11T02:12:50.946Z,0.00
2019-01-11T02:13:50.953Z,0.00
2019-01-11T02:14:50.913Z,0.00
2019-01-11T02:15:51.022Z,0.00
2019-01-11T02:16:50.884Z,0.00
2019-01-11T02:17:51.454Z,0.00
2019-01-11T02:18:50.863Z,0.00
2019-01-11T02:19:53.264Z,0.00
2019-01-11T02:20:50.838Z,0.00
2019-01-11T02:21:50.850Z,0.00
2019-01-11T02:22:50.824Z,0.00
2019-01-11T02:23:51.016Z,0.00
2019-01-11T02:24:50.793Z,0.00
2019-01-11T02:25:50.792Z,0.00
2019-01-11T02:26:51.037Z,0.00
2019-01-11T02:27:50.775Z,0.00
2019-01-11T02:28:50.764Z,0.00
2019-01-11T02:29:50.739Z,0.00
2019-01-11T02:30:50.811Z,0.00
2019-01-11T02:31:50.720Z,0.00
2019-01-11T02:32:52.811Z,0.00
2019-01-11T02:33:50.707Z,0.00
2019-01-11T02:34:50.740Z,0.00
2019-01-11T02:35:50.898Z,0.00
2019-01-11T02:36:50.659Z,0.00
2019-01-11T02:37:50.650Z,0.00
2019-01-11T02:38:50.649Z,0.00
2019-01-11T02:39:50.637Z,0.00
2019-01-11T02:40:51.785Z,0.00
2019-01-11T02:41:50.832Z,0.00
2019-01-11T02:42:50.607Z,0.00
2019-01-11T02:43:50.592Z,0.00
2019-01-11T02:44:50.586Z,0.00
2019-01-11T02:45:50.586Z,0.00
2019-01-11T02:46:50.786Z,0.00
2019-01-11T02:47:50.637Z,0.00
2019-01-11T02:48:50.548Z,0.00
2019-01-11T02:49:50.530Z,0.00
2019-01-11T02:50:50.515Z,0.00
2019-01-11T02:51:51.234Z,0.00
2019-01-11T02:52:50.829Z,0.00
2019-01-11T02:53:50.489Z,0.00
2019-01-11T02:54:50.479Z,0.00
2019-01-11T02:55:50.474Z,0.00
2019-01-11T02:56:50.456Z,0.00
2019-01-11T02:57:50.699Z,0.00
2019-01-11T02:58:50.451Z,0.00
2019-01-11T02:59:50.425Z,0.00
2019-01-11T03:00:50.409Z,0.00
2019-01-11T03:01:51.611Z,0.00
2019-01-11T03:02:50.496Z,0.00
2019-01-11T03:03:50.926Z,0.00
2019-01-11T03:04:51.190Z,0.00
2019-01-11T03:05:50.505Z,0.00
2019-01-11T03:06:50.355Z,0.00
2019-01-11T03:07:50.339Z,0.00
2019-01-11T03:08:50.323Z,0.00
2019-01-11T03:09:50.524Z,0.00
2019-01-11T03:10:51.658Z,0.00
2019-01-11T03:11:50.304Z,0.00
2019-01-11T03:12:51.065Z,0.00
2019-01-11T03:13:50.271Z,0.00
2019-01-11T03:14:50.429Z,0.00
2019-01-11T03:15:51.320Z,0.00
2019-01-11T03:16:56.508Z,0.00
2019-01-11T03:17:50.237Z,0.00
2019-01-11T03:18:50.214Z,0.00
2019-01-11T03:19:50.295Z,0.00
2019-01-11T03:20:54.249Z,0.00
2019-01-11T03:21:50.236Z,0.00
2019-01-11T03:22:51.330Z,0.00
2019-01-11T03:23:50.182Z,0.00
2019-01-11T03:24:50.564Z,0.00
2019-01-11T03:25:50.137Z,0.00
2019-01-11T03:26:50.371Z,0.00
2019-01-11T03:27:50.119Z,0.00
2019-01-11T03:28:50.105Z,0.00
2019-01-11T03:29:51.270Z,0.00
2019-01-11T03:30:52.413Z,0.00
2019-01-11T03:31:50.329Z,0.00
2019-01-11T03:32:50.058Z,0.00
2019-01-11T03:33:50.055Z,0.00
2019-01-11T03:34:50.703Z,0.00
2019-01-11T03:35:50.032Z,0.00
2019-01-11T03:36:50.098Z,0.00
2019-01-11T03:37:50.151Z,0.00
2019-01-11T03:38:50.420Z,0.00
2019-01-11T03:39:49.990Z,0.00
2019-01-11T03:40:50.026Z,0.00
2019-01-11T03:41:52.555Z,0.00
2019-01-11T03:42:50.289Z,0.00
2019-01-11T03:43:50.899Z,0.00
2019-01-11T03:44:50.934Z,0.00
2019-01-11T03:45:51.681Z,0.00
2019-01-11T03:46:49.927Z,0.00
2019-01-11T03:47:49.908Z,0.00
2019-01-11T03:48:49.888Z,0.00
2019-01-11T03:49:54.755Z,0.00
2019-01-11T03:50:50.409Z,0.00
2019-01-11T03:51:51.722Z,0.00
2019-01-11T03:52:49.848Z,0.00
2019-01-11T03:53:50.110Z,0.00
2019-01-11T03:54:49.842Z,0.00
2019-01-11T03:55:50.391Z,0.00
2019-01-11T03:56:49.870Z,0.00
2019-01-11T03:57:49.846Z,0.00
2019-01-11T03:58:49.781Z,0.00
2019-01-11T03:59:49.773Z,0.00
2019-01-11T04:00:49.751Z,0.00
2019-01-11T04:01:50.770Z,0.00
2019-01-11T04:02:49.745Z,0.00
2019-01-11T04:03:49.751Z,0.00
2019-01-11T04:04:49.716Z,0.00
2019-01-11T04:05:51.023Z,0.00
2019-01-11T04:06:49.829Z,0.00
2019-01-11T04:07:49.916Z,0.00
2019-01-11T04:08:49.835Z,0.00
2019-01-11T04:09:49.708Z,0.00
2019-01-11T04:10:49.842Z,0.00
2019-01-11T04:11:49.688Z,0.00
2019-01-11T04:12:51.550Z,0.00
2019-01-11T04:13:49.913Z,0.00
2019-01-11T04:14:49.857Z,0.00
2019-01-11T04:15:49.710Z,0.00
2019-01-11T04:16:49.692Z,0.00
2019-01-11T04:17:49.696Z,0.00
2019-01-11T04:18:49.675Z,0.00
2019-01-11T04:19:49.938Z,0.00
2019-01-11T04:20:55.919Z,0.00
2019-01-11T04:21:49.682Z,0.00
2019-01-11T04:22:49.667Z,0.00
2019-01-11T04:23:49.690Z,0.00
2019-01-11T04:24:49.687Z,0.00
2019-01-11T04:25:50.339Z,0.00
2019-01-11T04:26:49.477Z,0.00
2019-01-11T04:27:49.776Z,0.00
2019-01-11T04:28:49.452Z,0.00
2019-01-11T04:29:50.428Z,0.00
2019-01-11T04:30:49.438Z,0.00
2019-01-11T04:31:50.451Z,0.00
2019-01-11T04:32:49.417Z,0.00
2019-01-11T04:33:50.383Z,0.00
2019-01-11T04:34:49.402Z,0.00
2019-01-11T04:35:50.362Z,0.00
2019-01-11T04:36:49.371Z,0.00
2019-01-11T04:37:50.161Z,0.00
2019-01-11T04:38:49.491Z,0.00
2019-01-11T04:39:49.348Z,0.00
2019-01-11T04:40:49.324Z,0.00
2019-01-11T04:41:49.318Z,0.00
2019-01-11T04:42:49.325Z,0.00
2019-01-11T04:43:49.677Z,0.00
2019-01-11T04:44:49.407Z,0.00
2019-01-11T04:45:49.281Z,0.00
2019-01-11T04:46:49.301Z,0.00
2019-01-11T04:47:49.465Z,0.00
2019-01-11T04:48:49.995Z,0.00
2019-01-11T04:49:49.231Z,0.00
2019-01-11T04:50:49.213Z,0.00
2019-01-11T04:51:49.217Z,0.00
2019-01-11T04:52:49.199Z,0.00
2019-01-11T04:53:49.385Z,0.00
2019-01-11T04:54:49.214Z,0.00
2019-01-11T04:55:49.663Z,0.00
2019-01-11T04:56:49.173Z,0.00
2019-01-11T04:57:52.093Z,0.00
2019-01-11T04:58:50.080Z,0.00
2019-01-11T04:59:49.317Z,0.00
2019-01-11T05:00:50.101Z,0.00
2019-01-11T05:01:49.399Z,0.00
2019-01-11T05:02:51.482Z,0.00
2019-01-11T05:03:49.977Z,0.00
2019-01-11T05:04:51.012Z,0.00
2019-01-11T05:05:49.216Z,0.00
2019-01-11T05:06:49.112Z,0.00
2019-01-11T05:07:49.107Z,0.00
2019-01-11T05:08:49.042Z,0.00
2019-01-11T05:09:49.754Z,0.00
2019-01-11T05:10:49.105Z,0.00
2019-01-11T05:11:49.865Z,0.00
2019-01-11T05:12:51.695Z,0.00
2019-01-11T05:13:49.001Z,0.00
2019-01-11T05:14:49.149Z,0.00
2019-01-11T05:15:49.292Z,0.00
2019-01-11T05:16:51.055Z,0.00
2019-01-11T05:17:49.310Z,0.00
2019-01-11T05:18:49.238Z,0.00
2019-01-11T05:19:49.121Z,0.00
2019-01-11T05:20:50.387Z,0.00
2019-01-11T05:21:49.173Z,0.00
2019-01-11T05:22:48.871Z,0.00
2019-01-11T05:23:53.780Z,0.00
2019-01-11T05:24:49.870Z,0.00
2019-01-11T05:25:49.047Z,0.00
2019-01-11T05:26:48.849Z,0.00
2019-01-11T05:27:49.061Z,0.00
2019-01-11T05:28:49.002Z,0.00
2019-01-11T05:29:49.219Z,0.00
2019-01-11T05:30:48.908Z,0.00
2019-01-11T05:31:49.670Z,0.00
2019-01-11T05:32:49.122Z,0.00
2019-01-11T05:33:49.088Z,0.00
2019-01-11T05:34:49.147Z,0.00
2019-01-11T05:35:49.083Z,0.00
2019-01-11T05:36:49.996Z,0.00
2019-01-11T05:37:50.243Z,0.00
2019-01-11T05:38:49.068Z,0.00
2019-01-11T05:39:49.138Z,0.00
2019-01-11T05:40:49.063Z,0.00
2019-01-11T05:41:52.322Z,0.00
2019-01-11T05:42:54.084Z,0.00
2019-01-11T05:43:50.548Z,0.00
2019-01-11T05:44:51.907Z,0.00
2019-01-11T05:45:49.187Z,0.00
2019-01-11T05:46:58.018Z,0.00
2019-01-11T05:47:51.923Z,0.00
2019-01-11T05:48:49.296Z,0.00
2019-01-11T05:49:50.280Z,0.00
2019-01-11T05:50:49.147Z,0.00
2019-01-11T05:51:49.206Z,0.00
2019-01-11T05:52:49.357Z,0.00
2019-01-11T05:53:49.234Z,0.00
2019-01-11T05:54:50.864Z,0.00
2019-01-11T05:55:49.485Z,0.00
2019-01-11T05:56:49.223Z,0.00
2019-01-11T05:57:51.352Z,0.00
2019-01-11T05:58:49.149Z,0.00
2019-01-11T05:59:49.034Z,0.00
2019-01-11T06:00:56.398Z,0.00
2019-01-11T06:01:49.053Z,0.00
2019-01-11T06:02:48.965Z,0.00
2019-01-11T06:03:49.099Z,0.00
2019-01-11T06:04:48.980Z,0.00
2019-01-11T06:05:51.170Z,0.00
2019-01-11T06:06:53.305Z,0.00
2019-01-11T06:07:51.625Z,0.00
2019-01-11T06:08:48.906Z,0.00
2019-01-11T06:09:49.868Z,0.00
2019-01-11T06:10:49.975Z,0.00
2019-01-11T06:11:52.141Z,0.00
2019-01-11T06:12:49.923Z,0.00
2019-01-11T06:13:49.718Z,0.00
2019-01-11T06:14:49.441Z,0.00
2019-01-11T06:15:49.719Z,0.00
2019-01-11T06:16:51.999Z,0.00
2019-01-11T06:17:49.039Z,0.00
2019-01-11T06:18:49.388Z,0.00
2019-01-11T06:19:49.226Z,0.00
2019-01-11T06:20:49.157Z,0.00
2019-01-11T06:21:49.077Z,0.00
2019-01-11T06:22:50.330Z,0.00
2019-01-11T06:23:49.470Z,0.00
2019-01-11T06:24:49.079Z,0.00
2019-01-11T06:25:49.260Z,0.00
2019-01-11T06:26:49.812Z,0.00
2019-01-11T06:27:51.460Z,0.00
2019-01-11T06:28:49.252Z,0.00
2019-01-11T06:29:49.768Z,0.00
2019-01-11T06:30:49.035Z,0.00
2019-01-11T06:31:49.109Z,0.00
2019-01-11T06:32:49.177Z,0.00
2019-01-11T06:33:50.392Z,0.00
2019-01-11T06:34:48.946Z,0.00
2019-01-11T06:35:49.006Z,0.00
2019-01-11T06:36:49.007Z,0.00
2019-01-11T06:37:49.006Z,0.00
2019-01-11T06:38:49.033Z,0.00
2019-01-11T06:39:50.224Z,0.00
2019-01-11T06:40:49.041Z,0.00
2019-01-11T06:41:48.933Z,0.00
2019-01-11T06:42:49.040Z,4.00
2019-01-11T06:43:48.928Z,4.00
2019-01-11T06:44:51.532Z,4.00
2019-01-11T06:45:50.551Z,0.00
2019-01-11T06:46:48.921Z,4.00
2019-01-11T06:47:47.956Z,4.00
2019-01-11T06:48:47.937Z,4.00
2019-01-11T06:49:47.928Z,4.00
2019-01-11T06:50:50.611Z,8.00
2019-01-11T06:51:47.938Z,4.00
2019-01-11T06:52:47.904Z,8.00
2019-01-11T06:53:47.935Z,8.00
2019-01-11T06:54:47.934Z,8.00
2019-01-11T06:55:54.097Z,8.00
2019-01-11T06:56:48.496Z,12.00
2019-01-11T06:57:49.727Z,12.00
2019-01-11T06:59:59.762Z,12.00
2019-01-11T07:00:59.764Z,16.00
2019-01-11T07:01:59.180Z,16.00
2019-01-11T07:02:59.975Z,20.00
2019-01-11T07:03:59.157Z,24.00
2019-01-11T07:04:59.145Z,28.00
2019-01-11T07:05:59.219Z,28.00
2019-01-11T07:07:02.321Z,28.00
2019-01-11T07:07:59.118Z,36.00
2019-01-11T07:09:01.925Z,36.00
2019-01-11T07:09:59.097Z,36.00
2019-01-11T07:10:59.080Z,36.00
2019-01-11T07:12:00.936Z,40.00
2019-01-11T07:13:02.029Z,40.00
2019-01-11T07:13:59.360Z,48.00
2019-01-11T07:14:59.839Z,52.00
2019-01-11T07:15:59.448Z,56.00
2019-01-11T07:17:00.098Z,56.00
2019-01-11T07:18:01.600Z,60.00
2019-01-11T07:18:59.130Z,64.00
2019-01-11T07:20:05.363Z,64.00
2019-01-11T07:21:00.490Z,72.00
2019-01-11T07:21:59.117Z,72.00
2019-01-11T07:22:59.255Z,72.00
2019-01-11T07:24:00.203Z,76.00
2019-01-11T07:24:58.930Z,84.00
2019-01-11T07:25:58.941Z,88.00
2019-01-11T07:26:58.936Z,96.00
2019-01-11T07:27:58.906Z,84.00
2019-01-11T07:28:58.885Z,80.00
2019-01-11T07:30:10.101Z,96.00
2019-01-11T07:30:58.874Z,108.00
2019-01-11T07:31:58.872Z,104.00
2019-01-11T07:32:58.897Z,116.00
2019-01-11T07:33:58.845Z,124.00
2019-01-11T07:34:59.489Z,136.00
2019-01-11T07:35:58.948Z,148.00
2019-01-11T07:36:58.856Z,144.00
2019-01-11T07:37:59.012Z,180.00
2019-01-11T07:38:58.792Z,200.00
2019-01-11T07:39:59.230Z,200.00
2019-01-11T07:41:01.268Z,200.00
2019-01-11T07:41:59.039Z,232.00
2019-01-11T07:42:58.757Z,260.00
2019-01-11T07:43:58.734Z,240.00
2019-01-11T07:45:00.245Z,240.00
2019-01-11T07:46:04.329Z,232.00
2019-01-11T07:46:59.719Z,228.00
2019-01-11T07:47:58.681Z,228.00
2019-01-11T07:48:58.698Z,248.00
2019-01-11T07:49:58.722Z,224.00
2019-01-11T07:50:59.062Z,232.00
2019-01-11T07:51:58.643Z,236.00
2019-01-11T07:52:58.630Z,208.00
2019-01-11T07:53:58.689Z,224.00
2019-01-11T07:54:58.658Z,252.00
2019-01-11T07:55:59.044Z,272.00
2019-01-11T07:56:59.695Z,260.00
2019-01-11T07:57:58.701Z,312.00
2019-01-11T07:58:58.739Z,312.00
2019-01-11T07:59:58.628Z,292.00
2019-01-11T08:00:58.569Z,288.00
2019-01-11T08:02:00.776Z,312.00
2019-01-11T08:02:58.745Z,332.00
2019-01-11T08:03:58.644Z,328.00
2019-01-11T08:04:58.542Z,340.00
2019-01-11T08:05:58.525Z,360.00
2019-01-11T08:06:58.659Z,396.00
2019-01-11T08:07:59.658Z,404.00
2019-01-11T08:08:58.471Z,400.00
2019-01-11T08:09:58.453Z,404.00
2019-01-11T08:10:58.445Z,392.00
2019-01-11T08:11:58.436Z,420.00
2019-01-11T08:12:58.417Z,432.00
2019-01-11T08:13:58.620Z,464.00
2019-01-11T08:14:58.671Z,496.00
2019-01-11T08:15:58.417Z,556.00
2019-01-11T08:16:58.503Z,588.00
2019-01-11T08:17:59.232Z,556.00
2019-01-11T08:18:58.631Z,556.00
2019-01-11T08:19:58.744Z,596.00
2019-01-11T08:20:59.919Z,792.00
2019-01-11T08:21:58.903Z,1084.00
2019-01-11T08:22:59.614Z,1552.00
2019-01-11T08:23:58.682Z,1484.00
2019-01-11T08:24:58.717Z,1248.00
2019-01-11T08:25:58.303Z,1128.00
2019-01-11T08:26:58.288Z,1084.00
2019-01-11T08:27:58.273Z,1076.00
2019-01-11T08:28:58.284Z,1064.00
2019-01-11T08:29:58.288Z,1064.00
2019-01-11T08:30:58.659Z,1028.00
2019-01-11T08:31:58.227Z,1248.00
2019-01-11T08:32:58.200Z,1284.00
2019-01-11T08:33:58.203Z,1336.00
2019-01-11T08:34:58.188Z,1216.00
2019-01-11T08:35:58.177Z,1232.00
2019-01-11T08:36:58.542Z,1092.00
2019-01-11T08:37:58.424Z,1044.00
2019-01-11T08:38:58.258Z,1104.00
2019-01-11T08:39:58.145Z,1128.00
2019-01-11T08:40:58.241Z,1256.00
2019-01-11T08:41:58.268Z,1400.00
2019-01-11T08:42:58.142Z,1428.00
2019-01-11T08:43:58.091Z,1488.00
2019-01-11T08:44:58.096Z,1420.00
2019-01-11T08:45:58.977Z,1332.00
2019-01-11T08:46:58.568Z,1280.00
2019-01-11T08:47:58.710Z,1244.00
2019-01-11T08:48:59.291Z,1284.00
2019-01-11T08:49:59.089Z,1220.00
2019-01-11T08:51:02.601Z,1200.00
2019-01-11T08:51:58.251Z,1144.00
2019-01-11T08:52:57.980Z,1108.00
2019-01-11T08:53:58.188Z,1112.00
2019-01-11T08:54:57.989Z,1420.00
2019-01-11T08:55:58.048Z,1280.00
2019-01-11T08:56:57.954Z,1256.00
2019-01-11T08:57:58.086Z,1152.00
2019-01-11T08:58:57.922Z,1172.00
2019-01-11T08:59:58.606Z,1152.00
2019-01-11T09:00:57.988Z,1220.00
2019-01-11T09:01:57.896Z,1124.00
2019-01-11T09:02:57.874Z,1168.00
2019-01-11T09:03:57.882Z,1164.00
2019-01-11T09:04:58.247Z,1180.00
2019-01-11T09:05:58.007Z,1072.00
2019-01-11T09:06:58.537Z,1032.00
2019-01-11T09:07:59.322Z,1068.00
2019-01-11T09:08:57.951Z,1016.00
2019-01-11T09:09:57.796Z,1084.00
2019-01-11T09:10:58.314Z,964.00
2019-01-11T09:11:57.774Z,980.00
2019-01-11T09:13:00.563Z,1004.00
2019-01-11T09:13:57.780Z,940.00
2019-01-11T09:14:57.962Z,948.00
2019-01-11T09:15:57.731Z,920.00
2019-01-11T09:16:59.925Z,924.00
2019-01-11T09:17:57.711Z,940.00
2019-01-11T09:18:58.559Z,980.00
2019-01-11T09:19:57.913Z,992.00
2019-01-11T09:20:58.563Z,1028.00
2019-01-11T09:21:58.981Z,1116.00
2019-01-11T09:22:58.089Z,1192.00
2019-01-11T09:23:58.034Z,1196.00
2019-01-11T09:24:57.676Z,1148.00
2019-01-11T09:25:57.853Z,1204.00
2019-01-11T09:26:57.679Z,1244.00
2019-01-11T09:27:58.234Z,1188.00
2019-01-11T09:28:57.658Z,1256.00
2019-01-11T09:29:57.896Z,1308.00
2019-01-11T09:30:57.729Z,1340.00
2019-01-11T09:31:57.737Z,1468.00
2019-01-11T09:32:57.757Z,1684.00
2019-01-11T09:33:58.449Z,1768.00
2019-01-11T09:34:57.525Z,1668.00
2019-01-11T09:35:57.525Z,1720.00
2019-01-11T09:36:57.697Z,1820.00
2019-01-11T09:37:57.695Z,2040.00
2019-01-11T09:38:58.466Z,1872.00
2019-01-11T09:39:57.654Z,2180.00
2019-01-11T09:40:57.570Z,1980.00
2019-01-11T09:41:57.460Z,1796.00
2019-01-11T09:42:57.467Z,1856.00
2019-01-11T09:43:57.804Z,1736.00
2019-01-11T09:44:57.497Z,1508.00
2019-01-11T09:45:57.894Z,1312.00
2019-01-11T09:46:58.723Z,1324.00
2019-01-11T09:47:57.758Z,1452.00
2019-01-11T09:48:57.412Z,1512.00
2019-01-11T09:49:58.325Z,1468.00
2019-01-11T09:50:57.357Z,1556.00
2019-01-11T09:51:57.354Z,1516.00
2019-01-11T09:52:58.486Z,1412.00
2019-01-11T09:53:58.073Z,1612.00
2019-01-11T09:54:57.360Z,1716.00
2019-01-11T09:55:57.305Z,1796.00
2019-01-11T09:56:57.297Z,1852.00
2019-01-11T09:57:57.283Z,1784.00
2019-01-11T09:58:57.283Z,1720.00
2019-01-11T09:59:57.883Z,1828.00
2019-01-11T10:00:59.212Z,1840.00
2019-01-11T10:01:57.325Z,1700.00
2019-01-11T10:02:57.248Z,1656.00
2019-01-11T10:03:57.433Z,1708.00
2019-01-11T10:04:57.217Z,1720.00
2019-01-11T10:05:58.097Z,1520.00
2019-01-11T10:06:57.362Z,1428.00
2019-01-11T10:07:57.175Z,1392.00
2019-01-11T10:08:57.156Z,1292.00
2019-01-11T10:09:57.159Z,1388.00
2019-01-11T10:10:57.345Z,1204.00
2019-01-11T10:11:57.127Z,1260.00
2019-01-11T10:12:57.746Z,1328.00
2019-01-11T10:13:57.116Z,1340.00
2019-01-11T10:14:57.104Z,1444.00
2019-01-11T10:15:57.097Z,1560.00
2019-01-11T10:16:57.292Z,1612.00
2019-01-11T10:17:57.061Z,1784.00
2019-01-11T10:18:57.125Z,1824.00
2019-01-11T10:19:57.906Z,1888.00
2019-01-11T10:20:57.214Z,2024.00
2019-01-11T10:21:58.167Z,2068.00
2019-01-11T10:22:57.204Z,1980.00
2019-01-11T10:23:59.263Z,1976.00
2019-01-11T10:24:57.146Z,1716.00
2019-01-11T10:26:00.776Z,1676.00
2019-01-11T10:26:57.459Z,1732.00
2019-01-11T10:27:56.963Z,1660.00
2019-01-11T10:28:56.942Z,1824.00
2019-01-11T10:29:57.098Z,1764.00
2019-01-11T10:31:00.669Z,1848.00
2019-01-11T10:31:56.915Z,1980.00
2019-01-11T10:32:56.936Z,2108.00
2019-01-11T10:33:56.905Z,2152.00
2019-01-11T10:34:56.884Z,2296.00
2019-01-11T10:35:57.274Z,2240.00
2019-01-11T10:36:57.639Z,2160.00
2019-01-11T10:37:56.850Z,2120.00
2019-01-11T10:38:57.117Z,1944.00
2019-01-11T10:39:56.852Z,1948.00
2019-01-11T10:40:56.824Z,1908.00
2019-01-11T10:41:56.798Z,2044.00
2019-01-11T10:42:56.791Z,2140.00
2019-01-11T10:43:56.778Z,2152.00
2019-01-11T10:44:59.946Z,2560.00
2019-01-11T10:45:56.781Z,2944.00
2019-01-11T10:46:56.747Z,3396.00
2019-01-11T10:47:56.744Z,3568.00
2019-01-11T10:48:56.755Z,3260.00
2019-01-11T10:49:57.043Z,3364.00
2019-01-11T10:50:56.747Z,3688.00
2019-01-11T10:51:56.865Z,3504.00
2019-01-11T10:52:56.813Z,3280.00
2019-01-11T10:53:56.682Z,2900.00
2019-01-11T10:54:56.767Z,2876.00
2019-01-11T10:55:56.654Z,2700.00
2019-01-11T10:56:57.330Z,2300.00
2019-01-11T10:57:56.688Z,2512.00
2019-01-11T10:58:56.727Z,2240.00
2019-01-11T10:59:56.621Z,2196.00
2019-01-11T11:00:56.610Z,2436.00
2019-01-11T11:01:56.597Z,2388.00
2019-01-11T11:02:56.819Z,2536.00
2019-01-11T11:03:56.567Z,2272.00
2019-01-11T11:04:56.550Z,2436.00
2019-01-11T11:05:56.993Z,2820.00
2019-01-11T11:06:56.641Z,2784.00
2019-01-11T11:07:57.325Z,2648.00
2019-01-11T11:08:56.503Z,2596.00
2019-01-11T11:09:56.611Z,2408.00
2019-01-11T11:10:56.509Z,2144.00
2019-01-11T11:11:56.511Z,2084.00
2019-01-11T11:12:56.473Z,2084.00
2019-01-11T11:13:56.998Z,2108.00
2019-01-11T11:14:56.456Z,2008.00
2019-01-11T11:15:56.452Z,2112.00
2019-01-11T11:16:56.432Z,2072.00
2019-01-11T11:17:56.628Z,2496.00
2019-01-11T11:18:56.429Z,2584.00
2019-01-11T11:20:00.040Z,2592.00
2019-01-11T11:20:56.392Z,2636.00
2019-01-11T11:21:56.383Z,2872.00
2019-01-11T11:22:56.360Z,2796.00
2019-01-11T11:23:56.715Z,2660.00
2019-01-11T11:24:56.359Z,2364.00
2019-01-11T11:25:56.705Z,2172.00
2019-01-11T11:26:56.615Z,1956.00
2019-01-11T11:27:56.310Z,2196.00
2019-01-11T11:28:56.353Z,2208.00
2019-01-11T11:29:56.680Z,2308.00
2019-01-11T11:30:56.270Z,2252.00
2019-01-11T11:31:56.619Z,2028.00
2019-01-11T11:32:56.597Z,2096.00
2019-01-11T11:33:57.770Z,2000.00
2019-01-11T11:35:02.137Z,1948.00
2019-01-11T11:35:56.219Z,1996.00
2019-01-11T11:36:56.519Z,2104.00
2019-01-11T11:37:56.210Z,2260.00
2019-01-11T11:38:56.206Z,2528.00
2019-01-11T11:39:56.530Z,2860.00
2019-01-11T11:40:56.166Z,2984.00
2019-01-11T11:41:56.214Z,2724.00
2019-01-11T11:42:56.147Z,2768.00
2019-01-11T11:43:56.131Z,2772.00
2019-01-11T11:44:56.323Z,2704.00
2019-01-11T11:45:56.163Z,2756.00
2019-01-11T11:46:56.106Z,2512.00
2019-01-11T11:47:56.108Z,2476.00
2019-01-11T11:48:56.229Z,2684.00
2019-01-11T11:49:56.537Z,2948.00
2019-01-11T11:50:56.188Z,3220.00
2019-01-11T11:51:56.036Z,3060.00
2019-01-11T11:52:56.030Z,2868.00
2019-01-11T11:53:56.020Z,2816.00
2019-01-11T11:54:56.011Z,2920.00
2019-01-11T11:55:59.973Z,3084.00
2019-01-11T11:56:56.178Z,3124.00
2019-01-11T11:57:56.007Z,3276.00
2019-01-11T11:58:56.084Z,3224.00
2019-01-11T11:59:55.985Z,3348.00
2019-01-11T12:00:56.192Z,2812.00
2019-01-11T12:01:56.182Z,2364.00
2019-01-11T12:02:55.943Z,2008.00
2019-01-11T12:03:55.923Z,1868.00
2019-01-11T12:04:55.908Z,1760.00
2019-01-11T12:05:55.895Z,1636.00
2019-01-11T12:06:55.878Z,1692.00
2019-01-11T12:07:56.203Z,1872.00
2019-01-11T12:08:55.868Z,1900.00
2019-01-11T12:09:56.052Z,1996.00
2019-01-11T12:10:55.855Z,2136.00
2019-01-11T12:11:55.963Z,2316.00
2019-01-11T12:12:56.235Z,2680.00
2019-01-11T12:13:55.965Z,2732.00
2019-01-11T12:14:55.876Z,2568.00
2019-01-11T12:15:55.890Z,2336.00
2019-01-11T12:16:57.661Z,2116.00
2019-01-11T12:17:56.379Z,2316.00
2019-01-11T12:18:55.772Z,2508.00
2019-01-11T12:19:57.184Z,2672.00
2019-01-11T12:20:55.754Z,2912.00
2019-01-11T12:22:01.488Z,2852.00
2019-01-11T12:22:57.137Z,2572.00
2019-01-11T12:23:55.734Z,2640.00
2019-01-11T12:24:56.591Z,3148.00
2019-01-11T12:25:56.076Z,3288.00
2019-01-11T12:26:55.728Z,3472.00
2019-01-11T12:27:55.662Z,3604.00
2019-01-11T12:28:55.880Z,3832.00
2019-01-11T12:29:55.673Z,3848.00
2019-01-11T12:31:06.616Z,3540.00
2019-01-11T12:31:55.695Z,3492.00
2019-01-11T12:32:55.959Z,3428.00
2019-01-11T12:33:55.674Z,2732.00
2019-01-11T12:34:55.955Z,2132.00
2019-01-11T12:35:56.090Z,1652.00
2019-01-11T12:36:55.951Z,1492.00
2019-01-11T12:37:55.964Z,1368.00
2019-01-11T12:38:55.762Z,1476.00
2019-01-11T12:39:56.085Z,1724.00
2019-01-11T12:40:55.689Z,2004.00
2019-01-11T12:41:55.799Z,2128.00
2019-01-11T12:42:56.389Z,2192.00
2019-01-11T12:43:55.647Z,2252.00
2019-01-11T12:44:55.642Z,2452.00
2019-01-11T12:45:55.583Z,2496.00
2019-01-11T12:46:55.870Z,2656.00
2019-01-11T12:47:56.103Z,2888.00
2019-01-11T12:48:55.437Z,2528.00